createdAt,value
2018-09-21T00:00:48.079Z,20.90
2018-09-21T00:04:21.314Z,20.90
2018-09-21T00:07:54.534Z,20.90
2018-09-21T00:11:27.748Z,20.80
2018-09-21T00:15:00.983Z,20.80
2018-09-21T00:18:34.187Z,20.80
2018-09-21T00:22:07.387Z,20.80
2018-09-21T00:25:40.606Z,20.70
2018-09-21T00:29:16.956Z,20.70
2018-09-21T00:32:50.192Z,20.60
2018-09-21T00:36:23.424Z,20.60
2018-09-21T00:39:56.653Z,20.50
2018-09-21T00:43:29.872Z,20.50
2018-09-21T00:47:03.101Z,20.50
2018-09-21T00:50:36.374Z,20.50
2018-09-21T00:54:09.602Z,20.40
2018-09-21T00:57:42.819Z,20.40
2018-09-21T01:01:16.043Z,20.40
2018-09-21T01:04:49.284Z,20.30
2018-09-21T01:08:22.498Z,20.30
2018-09-21T01:11:55.767Z,20.30
2018-09-21T01:15:28.991Z,20.20
2018-09-21T01:19:02.427Z,20.20
2018-09-21T01:22:35.641Z,20.20
2018-09-21T01:26:08.861Z,20.20
2018-09-21T01:29:42.399Z,20.10
2018-09-21T01:33:15.628Z,20.10
2018-09-21T01:36:48.872Z,20.10
2018-09-21T01:40:22.106Z,20.10
2018-09-21T01:43:55.346Z,20.00
2018-09-21T01:47:28.594Z,20.00
2018-09-21T01:51:01.908Z,20.00
2018-09-21T01:54:35.140Z,20.00
2018-09-21T01:58:08.372Z,20.00
2018-09-21T02:01:41.612Z,20.00
2018-09-21T02:05:14.850Z,19.90
2018-09-21T02:08:48.080Z,19.90
2018-09-21T02:12:21.309Z,19.90
2018-09-21T02:15:54.548Z,19.90
2018-09-21T02:19:27.777Z,19.90
2018-09-21T02:23:01.012Z,19.90
2018-09-21T02:26:34.240Z,19.80
2018-09-21T02:30:07.484Z,19.80
2018-09-21T02:33:40.720Z,19.70
2018-09-21T02:37:13.944Z,19.70
2018-09-21T02:40:47.180Z,19.60
2018-09-21T02:44:20.396Z,19.60
2018-09-21T02:47:53.633Z,19.60
2018-09-21T02:51:26.873Z,19.50
2018-09-21T02:55:00.106Z,19.50
2018-09-21T02:58:33.329Z,19.50
2018-09-21T03:02:06.562Z,19.50
2018-09-21T03:05:39.797Z,19.50
2018-09-21T03:09:13.020Z,19.50
2018-09-21T03:12:46.311Z,19.50
2018-09-21T03:16:19.528Z,19.40
2018-09-21T03:19:52.754Z,19.40
2018-09-21T03:23:25.987Z,19.40
2018-09-21T03:26:59.216Z,19.40
2018-09-21T03:30:32.463Z,19.40
2018-09-21T03:34:05.707Z,19.30
2018-09-21T03:37:38.955Z,19.30
2018-09-21T03:41:12.205Z,19.30
2018-09-21T03:44:45.435Z,19.30
2018-09-21T03:48:18.671Z,19.30
2018-09-21T03:51:51.889Z,19.20
2018-09-21T03:55:25.112Z,19.20
2018-09-21T03:58:58.336Z,19.20
2018-09-21T04:02:31.577Z,19.10
2018-09-21T04:06:04.871Z,19.10
2018-09-21T04:09:38.087Z,19.10
2018-09-21T04:13:11.328Z,19.00
2018-09-21T04:16:44.557Z,19.00
2018-09-21T04:20:17.787Z,18.90
2018-09-21T04:23:51.039Z,18.90
2018-09-21T04:27:24.291Z,18.80
2018-09-21T04:30:57.540Z,18.80
2018-09-21T04:34:30.772Z,18.80
2018-09-21T04:38:04.026Z,18.70
2018-09-21T04:41:37.605Z,18.70
2018-09-21T04:45:10.815Z,18.70
2018-09-21T04:48:44.055Z,18.60
2018-09-21T04:52:17.316Z,18.60
2018-09-21T04:55:50.536Z,18.60
2018-09-21T04:59:23.776Z,18.60
2018-09-21T05:02:57.004Z,18.50
2018-09-21T05:06:30.236Z,18.50
2018-09-21T05:10:03.464Z,18.40
2018-09-21T05:13:36.740Z,18.40
2018-09-21T05:17:09.927Z,18.40
2018-09-21T05:20:43.168Z,18.40
2018-09-21T05:24:16.399Z,18.40
2018-09-21T05:27:49.653Z,18.40
2018-09-21T05:31:22.894Z,18.40
2018-09-21T05:34:56.128Z,18.40
2018-09-21T05:38:29.332Z,18.40
2018-09-21T05:42:02.564Z,18.40
2018-09-21T05:45:35.790Z,18.40
2018-09-21T05:49:09.299Z,18.40
2018-09-21T05:52:42.529Z,18.40
2018-09-21T05:56:15.762Z,18.40
2018-09-21T05:59:48.972Z,18.40
2018-09-21T06:03:22.212Z,18.50
2018-09-21T06:06:55.456Z,18.50
2018-09-21T06:10:28.673Z,18.50
2018-09-21T06:14:01.924Z,18.60
2018-09-21T06:17:35.176Z,18.60
2018-09-21T06:21:08.470Z,18.70
2018-09-21T06:24:41.656Z,18.70
2018-09-21T06:28:14.916Z,18.80
2018-09-21T06:31:48.193Z,18.90
2018-09-21T06:35:21.384Z,19.00
2018-09-21T06:38:54.645Z,19.10
2018-09-21T06:42:27.921Z,19.10
2018-09-21T06:46:01.102Z,19.20
2018-09-21T06:49:34.355Z,19.30
2018-09-21T06:53:07.596Z,19.40
2018-09-21T06:56:40.834Z,19.40
2018-09-21T07:00:14.056Z,19.50
2018-09-21T07:03:47.276Z,19.60
2018-09-21T07:07:20.516Z,19.70
2018-09-21T07:10:53.760Z,19.80
2018-09-21T07:14:27.005Z,19.90
2018-09-21T07:18:00.225Z,20.00
2018-09-21T07:21:33.477Z,20.20
2018-09-21T07:25:06.795Z,20.30
2018-09-21T07:28:40.075Z,20.30
2018-09-21T07:32:13.480Z,20.40
2018-09-21T07:35:47.200Z,20.50
2018-09-21T07:39:20.446Z,20.60
2018-09-21T07:42:53.715Z,20.60
2018-09-21T07:46:26.940Z,20.70
2018-09-21T07:50:00.176Z,20.80
2018-09-21T07:53:33.406Z,20.90
2018-09-21T07:57:06.696Z,21.10
2018-09-21T08:00:39.915Z,21.20
2018-09-21T08:04:13.140Z,21.30
2018-09-21T08:07:46.359Z,21.40
2018-09-21T08:11:19.567Z,21.60
2018-09-21T08:14:52.812Z,21.60
2018-09-21T08:18:26.044Z,21.70
2018-09-21T08:21:59.266Z,22.00
2018-09-21T08:25:32.494Z,22.30
2018-09-21T08:29:05.712Z,22.50
2018-09-21T08:32:38.949Z,22.70
2018-09-21T08:36:12.186Z,22.80
2018-09-21T08:39:45.399Z,23.00
2018-09-21T08:43:18.616Z,23.20
2018-09-21T08:46:51.836Z,23.50
2018-09-21T08:50:25.061Z,23.80
2018-09-21T08:53:58.287Z,24.20
2018-09-21T08:57:31.504Z,24.60
2018-09-21T09:01:04.773Z,25.00
2018-09-21T09:04:38.010Z,25.30
2018-09-21T09:08:11.228Z,25.60
2018-09-21T09:11:44.458Z,25.70
2018-09-21T09:15:17.679Z,25.80
2018-09-21T09:18:50.896Z,25.90
2018-09-21T09:22:24.128Z,26.10
2018-09-21T09:25:57.371Z,26.30
2018-09-21T09:29:30.626Z,26.60
2018-09-21T09:33:04.091Z,26.70
2018-09-21T09:36:37.309Z,26.80
2018-09-21T09:40:10.548Z,26.90
2018-09-21T09:43:43.773Z,26.90
2018-09-21T09:47:16.995Z,27.00
2018-09-21T09:50:50.232Z,27.00
2018-09-21T09:54:23.468Z,27.10
2018-09-21T09:57:56.688Z,27.20
2018-09-21T10:01:29.908Z,27.40
2018-09-21T10:05:03.308Z,27.60
2018-09-21T10:08:36.532Z,27.80
2018-09-21T10:12:09.751Z,27.90
2018-09-21T10:15:42.989Z,27.90
2018-09-21T10:19:16.199Z,27.80
2018-09-21T10:22:49.421Z,27.90
2018-09-21T10:26:22.637Z,28.10
2018-09-21T10:29:55.876Z,28.20
2018-09-21T10:33:29.258Z,28.30
2018-09-21T10:37:02.348Z,28.30
2018-09-21T10:40:35.588Z,28.40
2018-09-21T10:44:08.972Z,28.60
2018-09-21T10:47:42.204Z,28.80
2018-09-21T10:51:15.420Z,28.90
2018-09-21T10:54:48.676Z,28.90
2018-09-21T10:58:21.895Z,28.90
2018-09-21T11:01:55.112Z,29.00
2018-09-21T11:05:28.336Z,29.10
2018-09-21T11:09:01.558Z,29.10
2018-09-21T11:12:34.777Z,29.10
2018-09-21T11:16:08.860Z,29.10
2018-09-21T11:19:42.080Z,29.20
2018-09-21T11:23:15.300Z,29.20
2018-09-21T11:26:48.527Z,29.30
2018-09-21T11:30:21.759Z,29.40
2018-09-21T11:33:54.979Z,29.50
2018-09-21T11:37:28.212Z,29.50
2018-09-21T11:41:01.476Z,29.50
2018-09-21T11:44:34.668Z,29.50
2018-09-21T11:48:07.925Z,29.40
2018-09-21T11:51:41.160Z,29.50
2018-09-21T11:55:14.375Z,29.50
2018-09-21T11:58:47.912Z,29.60
2018-09-21T12:02:21.129Z,29.70
2018-09-21T12:05:54.357Z,29.70
2018-09-21T12:09:27.571Z,29.60
2018-09-21T12:13:00.783Z,29.50
2018-09-21T12:16:34.000Z,29.50
2018-09-21T12:20:07.228Z,29.50
2018-09-21T12:23:40.444Z,29.50
2018-09-21T12:27:13.708Z,29.50
2018-09-21T12:30:46.965Z,29.60
2018-09-21T12:34:20.171Z,29.50
2018-09-21T12:37:53.391Z,29.60
2018-09-21T12:41:26.607Z,29.60
2018-09-21T12:44:59.816Z,29.50
2018-09-21T12:48:33.041Z,29.50
2018-09-21T12:52:07.072Z,29.40
2018-09-21T12:55:40.280Z,29.40
2018-09-21T12:59:13.496Z,29.30
2018-09-21T13:02:46.809Z,29.20
2018-09-21T13:06:26.508Z,29.10
2018-09-21T13:09:59.732Z,28.90
2018-09-21T13:13:32.948Z,28.90
2018-09-21T13:17:06.164Z,28.90
2018-09-21T13:20:39.388Z,28.80
2018-09-21T13:24:12.621Z,28.90
2018-09-21T13:27:45.845Z,28.90
2018-09-21T13:31:19.083Z,28.90
2018-09-21T13:34:52.358Z,28.90
2018-09-21T13:38:25.596Z,28.90
2018-09-21T13:41:58.860Z,28.80
2018-09-21T13:45:32.073Z,28.70
2018-09-21T13:49:05.511Z,28.70
2018-09-21T13:52:38.736Z,28.70
2018-09-21T13:56:11.965Z,28.60
2018-09-21T13:59:45.196Z,28.60
2018-09-21T14:03:18.433Z,28.50
2018-09-21T14:06:51.660Z,28.30
2018-09-21T14:10:24.888Z,28.20
2018-09-21T14:13:58.112Z,28.00
2018-09-21T14:17:31.340Z,27.80
2018-09-21T14:21:04.563Z,27.60
2018-09-21T14:24:37.807Z,27.60
2018-09-21T14:28:11.021Z,27.50
2018-09-21T14:31:44.240Z,27.40
2018-09-21T14:35:17.507Z,27.30
2018-09-21T14:38:50.748Z,27.20
2018-09-21T14:42:23.993Z,27.10
2018-09-21T14:45:57.260Z,27.00
2018-09-21T14:49:30.489Z,26.90
2018-09-21T14:53:03.712Z,26.80
2018-09-21T14:56:36.933Z,26.70
2018-09-21T15:00:10.146Z,26.60
2018-09-21T15:03:43.381Z,26.60
2018-09-21T15:07:16.604Z,26.50
2018-09-21T15:10:49.819Z,26.50
2018-09-21T15:14:23.056Z,26.40
2018-09-21T15:17:56.295Z,26.40
2018-09-21T15:21:29.524Z,26.10
2018-09-21T15:25:02.776Z,25.30
2018-09-21T15:28:36.852Z,24.20
2018-09-21T15:32:10.101Z,23.50
2018-09-21T15:35:43.317Z,23.20
2018-09-21T15:39:16.595Z,23.10
2018-09-21T15:42:49.836Z,23.00
2018-09-21T15:46:23.577Z,23.10
2018-09-21T15:49:56.837Z,23.00
2018-09-21T15:53:30.068Z,23.00
2018-09-21T15:57:03.276Z,23.00
2018-09-21T16:00:36.865Z,23.00
2018-09-21T16:04:10.094Z,23.00
2018-09-21T16:07:43.308Z,23.00
2018-09-21T16:11:16.533Z,23.00
2018-09-21T16:14:49.769Z,22.80
2018-09-21T16:18:23.127Z,22.70
2018-09-21T16:21:56.365Z,22.50
2018-09-21T16:25:29.592Z,22.40
2018-09-21T16:29:02.848Z,22.40
2018-09-21T16:32:36.177Z,22.40
2018-09-21T16:36:09.436Z,21.60
2018-09-21T16:39:42.623Z,20.60
2018-09-21T16:43:15.853Z,20.00
2018-09-21T16:46:49.076Z,19.50
2018-09-21T16:50:22.285Z,19.00
2018-09-21T16:53:55.514Z,18.60
2018-09-21T16:57:28.781Z,18.30
2018-09-21T17:01:01.971Z,18.00
2018-09-21T17:04:35.239Z,17.70
2018-09-21T17:08:08.440Z,17.40
2018-09-21T17:11:41.655Z,17.20
2018-09-21T17:15:14.860Z,17.00
2018-09-21T17:18:48.060Z,16.80
2018-09-21T17:22:21.275Z,16.70
2018-09-21T17:25:54.630Z,16.60
2018-09-21T17:29:27.864Z,16.50
2018-09-21T17:33:01.089Z,16.50
2018-09-21T17:36:34.319Z,16.60
2018-09-21T17:40:07.536Z,16.60
2018-09-21T17:43:40.748Z,16.60
2018-09-21T17:47:13.976Z,16.50
2018-09-21T17:50:47.228Z,16.40
2018-09-21T17:54:20.452Z,16.30
2018-09-21T17:57:53.665Z,16.20
2018-09-21T18:01:27.260Z,16.10
2018-09-21T18:05:00.483Z,16.00
2018-09-21T18:08:33.703Z,15.90
2018-09-21T18:12:06.931Z,15.90
2018-09-21T18:15:40.144Z,16.00
2018-09-21T18:19:13.389Z,16.00
2018-09-21T18:22:46.662Z,16.10
2018-09-21T18:26:19.857Z,16.10
2018-09-21T18:29:53.083Z,16.00
2018-09-21T18:33:26.308Z,16.00
2018-09-21T18:36:59.842Z,16.00
2018-09-21T18:40:32.882Z,16.00
2018-09-21T18:44:06.756Z,16.10
2018-09-21T18:47:39.968Z,16.10
2018-09-21T18:51:13.207Z,16.10
2018-09-21T18:54:46.508Z,16.20
2018-09-21T18:58:19.741Z,16.30
2018-09-21T19:01:52.969Z,16.30
2018-09-21T19:05:26.241Z,16.30
2018-09-21T19:08:59.460Z,16.30
2018-09-21T19:12:32.695Z,16.20
2018-09-21T19:16:05.927Z,16.10
2018-09-21T19:19:39.177Z,16.00
2018-09-21T19:23:12.416Z,15.80
2018-09-21T19:26:45.636Z,15.80
2018-09-21T19:30:18.893Z,15.80
2018-09-21T19:33:52.132Z,15.70
2018-09-21T19:37:25.364Z,15.70
2018-09-21T19:40:58.581Z,15.60
2018-09-21T19:44:31.795Z,15.60
2018-09-21T19:48:05.408Z,15.50
2018-09-21T19:51:38.727Z,15.50
2018-09-21T19:55:11.959Z,15.50
2018-09-21T19:58:45.166Z,15.50
2018-09-21T20:02:18.395Z,15.40
2018-09-21T20:05:51.596Z,15.40
2018-09-21T20:09:24.825Z,15.40
2018-09-21T20:12:58.072Z,15.40
2018-09-21T20:16:31.341Z,15.40
2018-09-21T20:20:04.560Z,15.40
2018-09-21T20:23:38.048Z,15.40
2018-09-21T20:27:11.295Z,15.40
2018-09-21T20:30:49.935Z,15.50
2018-09-21T20:34:23.112Z,15.40
2018-09-21T20:37:56.340Z,15.40
2018-09-21T20:41:29.603Z,15.40
2018-09-21T20:45:02.839Z,15.40
2018-09-21T20:48:36.102Z,15.30
2018-09-21T20:52:09.335Z,15.30
2018-09-21T20:55:42.672Z,15.30
2018-09-21T20:59:15.945Z,15.20
2018-09-21T21:02:49.143Z,15.20
2018-09-21T21:06:22.384Z,15.10
2018-09-21T21:09:55.620Z,15.10
2018-09-21T21:13:28.885Z,15.10
2018-09-21T21:17:02.090Z,15.20
2018-09-21T21:20:35.334Z,15.20
2018-09-21T21:24:08.565Z,15.20
2018-09-21T21:27:41.776Z,15.20
2018-09-21T21:31:15.012Z,15.20
2018-09-21T21:34:48.220Z,15.20
2018-09-21T21:38:21.452Z,15.10
2018-09-21T21:41:54.675Z,15.10
2018-09-21T21:45:27.912Z,15.10
2018-09-21T21:49:01.124Z,15.10
2018-09-21T21:52:34.346Z,15.10
2018-09-21T21:56:07.572Z,15.10
2018-09-21T21:59:40.784Z,15.10
2018-09-21T22:03:13.999Z,15.10
2018-09-21T22:06:47.471Z,15.10
2018-09-21T22:10:20.708Z,15.10
2018-09-21T22:13:59.083Z,15.10
2018-09-21T22:17:32.320Z,15.10
2018-09-21T22:21:05.552Z,15.10
2018-09-21T22:24:38.753Z,15.10
2018-09-21T22:28:11.967Z,15.10
2018-09-21T22:31:45.192Z,15.10
2018-09-21T22:35:18.408Z,15.10
2018-09-21T22:38:51.617Z,15.10
2018-09-21T22:42:24.839Z,15.20
2018-09-21T22:45:58.057Z,15.20
2018-09-21T22:49:31.299Z,15.20
2018-09-21T22:53:04.519Z,15.20
2018-09-21T22:56:37.752Z,15.20
2018-09-21T23:00:10.975Z,15.20
2018-09-21T23:03:44.200Z,15.20
2018-09-21T23:07:17.419Z,15.20
2018-09-21T23:10:50.625Z,15.20
2018-09-21T23:14:23.852Z,15.20
2018-09-21T23:17:57.065Z,15.20
2018-09-21T23:21:30.302Z,15.10
2018-09-21T23:25:03.532Z,15.10
2018-09-21T23:28:36.786Z,15.20
2018-09-21T23:32:10.065Z,15.10
2018-09-21T23:35:43.281Z,15.10
2018-09-21T23:39:16.501Z,15.10
2018-09-21T23:42:49.708Z,15.10
2018-09-21T23:46:22.941Z,15.10
2018-09-21T23:49:56.153Z,15.10
2018-09-21T23:53:29.395Z,15.20
2018-09-21T23:57:02.609Z,15.10
